sensor_id;sensor_type;location;lat;lon;timestamp;pressure;altitude;pressure_sealevel;temperature;humidity
58821;BME280;70670;52.476;13.334;2024-03-06T00:01:54;101379.53;;;2.15;87.84
58821;BME280;70670;52.476;13.334;2024-03-06T00:04:20;101373.41;;;2.10;88.31
58821;BME280;70670;52.476;13.334;2024-03-06T00:06:46;101349.81;;;1.93;88.42
58821;BME280;70670;52.476;13.334;2024-03-06T00:09:12;101389.25;;;2.10;88.22
58821;BME280;70670;52.476;13.334;2024-03-06T00:11:37;101307.00;;;1.62;88.82
58821;BME280;70670;52.476;13.334;2024-03-06T00:14:03;101390.28;;;1.96;88.78
58821;BME280;70670;52.476;13.334;2024-03-06T00:16:33;101394.63;;;2.01;89.00
58821;BME280;70670;52.476;13.334;2024-03-06T00:18:59;101399.06;;;1.99;89.23
58821;BME280;70670;52.476;13.334;2024-03-06T00:21:25;101327.28;;;1.57;89.28
58821;BME280;70670;52.476;13.334;2024-03-06T00:23:51;101406.06;;;2.03;88.48
58821;BME280;70670;52.476;13.334;2024-03-06T00:26:16;101412.19;;;2.05;88.82
58821;BME280;70670;52.476;13.334;2024-03-06T00:28:42;101401.66;;;2.02;88.40
58821;BME280;70670;52.476;13.334;2024-03-06T00:31:08;101391.16;;;1.95;88.15
58821;BME280;70670;52.476;13.334;2024-03-06T00:33:33;101409.53;;;2.08;88.31
58821;BME280;70670;52.476;13.334;2024-03-06T00:35:59;101421.00;;;2.07;87.94
58821;BME280;70670;52.476;13.334;2024-03-06T00:38:25;101350.06;;;1.65;88.55
58821;BME280;70670;52.476;13.334;2024-03-06T00:40:50;101363.28;;;1.67;88.53
58821;BME280;70670;52.476;13.334;2024-03-06T00:43:16;101351.03;;;1.54;89.03
58821;BME280;70670;52.476;13.334;2024-03-06T00:45:42;101429.00;;;1.93;89.28
58821;BME280;70670;52.476;13.334;2024-03-06T00:48:07;101433.41;;;1.92;89.07
58821;BME280;70670;52.476;13.334;2024-03-06T00:50:33;101427.25;;;1.92;88.97
58821;BME280;70670;52.476;13.334;2024-03-06T00:52:59;101432.56;;;1.90;89.42
58821;BME280;70670;52.476;13.334;2024-03-06T00:55:24;101367.75;;;1.54;89.30
58821;BME280;70670;52.476;13.334;2024-03-06T00:57:50;101440.44;;;1.93;89.19
58821;BME280;70670;52.476;13.334;2024-03-06T01:00:16;101380.97;;;1.53;89.48
58821;BME280;70670;52.476;13.334;2024-03-06T01:02:42;101366.06;;;1.44;89.42
58821;BME280;70670;52.476;13.334;2024-03-06T01:05:08;101434.34;;;1.85;89.64
58821;BME280;70670;52.476;13.334;2024-03-06T01:07:37;101447.50;;;1.90;89.45
58821;BME280;70670;52.476;13.334;2024-03-06T01:10:03;101445.75;;;1.92;89.27
58821;BME280;70670;52.476;13.334;2024-03-06T01:12:29;101449.28;;;1.91;89.52
58821;BME280;70670;52.476;13.334;2024-03-06T01:14:56;101329.31;;;1.18;89.95
58821;BME280;70670;52.476;13.334;2024-03-06T01:17:21;101450.19;;;1.85;90.10
58821;BME280;70670;52.476;13.334;2024-03-06T01:19:47;101429.19;;;1.75;90.05
58821;BME280;70670;52.476;13.334;2024-03-06T01:22:13;101369.69;;;1.31;90.82
58821;BME280;70670;52.476;13.334;2024-03-06T01:24:39;101449.38;;;1.77;91.18
58821;BME280;70670;52.476;13.334;2024-03-06T01:27:05;101453.78;;;1.73;91.38
58821;BME280;70670;52.476;13.334;2024-03-06T01:29:31;101427.53;;;1.54;91.70
58821;BME280;70670;52.476;13.334;2024-03-06T01:31:57;101435.47;;;1.55;91.60
58821;BME280;70670;52.476;13.334;2024-03-06T01:34:23;101449.50;;;1.59;91.78
58821;BME280;70670;52.476;13.334;2024-03-06T01:36:49;101408.38;;;1.27;91.96
58821;BME280;70670;52.476;13.334;2024-03-06T01:39:14;101460.97;;;1.53;92.90
58821;BME280;70670;52.476;13.334;2024-03-06T01:41:47;101464.47;;;1.55;92.90
58821;BME280;70670;52.476;13.334;2024-03-06T01:44:14;101460.06;;;1.56;93.18
58821;BME280;70670;52.476;13.334;2024-03-06T01:46:39;101401.41;;;1.20;93.34
58821;BME280;70670;52.476;13.334;2024-03-06T01:49:06;101467.09;;;1.57;93.28
58821;BME280;70670;52.476;13.334;2024-03-06T01:51:32;101447.81;;;1.42;93.02
58821;BME280;70670;52.476;13.334;2024-03-06T01:53:57;101475.06;;;1.51;93.37
58821;BME280;70670;52.476;13.334;2024-03-06T01:56:24;101458.38;;;1.42;93.84
58821;BME280;70670;52.476;13.334;2024-03-06T01:58:50;101477.66;;;1.54;93.63
58821;BME280;70670;52.476;13.334;2024-03-06T02:01:16;101334.84;;;0.77;93.41
58821;BME280;70670;52.476;13.334;2024-03-06T02:03:43;101472.38;;;1.54;93.67
58821;BME280;70670;52.476;13.334;2024-03-06T02:06:11;101462.75;;;1.46;94.08
58821;BME280;70670;52.476;13.334;2024-03-06T02:08:37;101475.06;;;1.47;93.35
58821;BME280;70670;52.476;13.334;2024-03-06T02:11:03;101470.66;;;1.46;94.25
58821;BME280;70670;52.476;13.334;2024-03-06T02:13:28;101474.16;;;1.52;94.19
58821;BME280;70670;52.476;13.334;2024-03-06T02:15:54;101471.53;;;1.48;94.13
58821;BME280;70670;52.476;13.334;2024-03-06T02:18:20;101390.06;;;1.07;94.30
58821;BME280;70670;52.476;13.334;2024-03-06T02:20:46;101345.44;;;0.69;94.40
58821;BME280;70670;52.476;13.334;2024-03-06T02:23:12;101482.13;;;1.44;94.43
58821;BME280;70670;52.476;13.334;2024-03-06T02:25:40;101393.63;;;0.89;94.44
58821;BME280;70670;52.476;13.334;2024-03-06T02:28:05;101466.38;;;1.32;95.33
58821;BME280;70670;52.476;13.334;2024-03-06T02:30:31;101416.44;;;1.01;95.16
58821;BME280;70670;52.476;13.334;2024-03-06T02:33:02;101484.81;;;1.36;95.54
58821;BME280;70670;52.476;13.334;2024-03-06T02:35:30;101487.47;;;1.35;95.41
58821;BME280;70670;52.476;13.334;2024-03-06T02:37:56;101472.53;;;1.26;95.32
58821;BME280;70670;52.476;13.334;2024-03-06T02:40:24;101496.25;;;1.32;95.69
58821;BME280;70670;52.476;13.334;2024-03-06T02:42:50;101451.53;;;1.09;95.95
58821;BME280;70670;52.476;13.334;2024-03-06T02:45:15;101478.69;;;1.22;96.12
58821;BME280;70670;52.476;13.334;2024-03-06T02:47:41;101489.22;;;1.27;96.14
58821;BME280;70670;52.476;13.334;2024-03-06T02:50:07;101476.97;;;1.19;96.43
58821;BME280;70670;52.476;13.334;2024-03-06T02:52:33;101488.34;;;1.29;96.01
58821;BME280;70670;52.476;13.334;2024-03-06T02:54:59;101491.00;;;1.31;96.23
58821;BME280;70670;52.476;13.334;2024-03-06T02:57:28;101485.75;;;1.23;96.54
58821;BME280;70670;52.476;13.334;2024-03-06T02:59:55;101498.03;;;1.29;96.36
58821;BME280;70670;52.476;13.334;2024-03-06T03:02:21;101483.13;;;1.23;96.21
58821;BME280;70670;52.476;13.334;2024-03-06T03:04:47;101475.22;;;1.20;96.32
58821;BME280;70670;52.476;13.334;2024-03-06T03:07:12;101408.59;;;0.83;96.08
58821;BME280;70670;52.476;13.334;2024-03-06T03:09:38;101475.19;;;1.21;96.31
58821;BME280;70670;52.476;13.334;2024-03-06T03:12:04;101484.84;;;1.22;96.83
58821;BME280;70670;52.476;13.334;2024-03-06T03:14:29;101416.53;;;0.80;96.56
58821;BME280;70670;52.476;13.334;2024-03-06T03:16:55;101498.03;;;1.29;96.86
58821;BME280;70670;52.476;13.334;2024-03-06T03:19:21;101439.31;;;0.88;96.40
58821;BME280;70670;52.476;13.334;2024-03-06T03:21:46;101499.78;;;1.28;96.17
58821;BME280;70670;52.476;13.334;2024-03-06T03:24:13;101444.59;;;0.91;95.90
58821;BME280;70670;52.476;13.334;2024-03-06T03:26:38;101511.25;;;1.21;96.01
58821;BME280;70670;52.476;13.334;2024-03-06T03:29:04;101509.47;;;1.21;96.50
58821;BME280;70670;52.476;13.334;2024-03-06T03:31:30;101527.03;;;1.27;97.21
58821;BME280;70670;52.476;13.334;2024-03-06T03:33:56;101525.31;;;1.23;97.73
58821;BME280;70670;52.476;13.334;2024-03-06T03:36:21;101461.28;;;0.86;97.31
58821;BME280;70670;52.476;13.334;2024-03-06T03:38:47;101526.19;;;1.19;97.69
58821;BME280;70670;52.476;13.334;2024-03-06T03:41:13;101514.78;;;1.14;97.61
58821;BME280;70670;52.476;13.334;2024-03-06T03:43:39;101520.03;;;1.17;97.42
58821;BME280;70670;52.476;13.334;2024-03-06T03:46:05;101508.66;;;1.07;97.27
58821;BME280;70670;52.476;13.334;2024-03-06T03:48:32;101524.44;;;1.16;97.95
58821;BME280;70670;52.476;13.334;2024-03-06T03:51:05;101527.94;;;1.17;97.90
58821;BME280;70670;52.476;13.334;2024-03-06T03:53:35;101508.66;;;1.09;97.93
58821;BME280;70670;52.476;13.334;2024-03-06T03:56:01;101536.75;;;1.19;98.04
58821;BME280;70670;52.476;13.334;2024-03-06T03:58:28;101509.56;;;1.03;98.17
58821;BME280;70670;52.476;13.334;2024-03-06T04:00:54;101534.97;;;1.21;98.35
58821;BME280;70670;52.476;13.334;2024-03-06T04:03:21;101462.19;;;0.74;97.42
58821;BME280;70670;52.476;13.334;2024-03-06T04:05:48;101520.09;;;1.08;97.48
58821;BME280;70670;52.476;13.334;2024-03-06T04:08:14;101542.88;;;1.18;97.76
58821;BME280;70670;52.476;13.334;2024-03-06T04:10:39;101535.00;;;1.16;97.67
58821;BME280;70670;52.476;13.334;2024-03-06T04:13:05;101542.91;;;1.15;97.66
58821;BME280;70670;52.476;13.334;2024-03-06T04:15:31;101527.09;;;1.03;98.60
58821;BME280;70670;52.476;13.334;2024-03-06T04:17:58;101546.41;;;1.14;98.26
58821;BME280;70670;52.476;13.334;2024-03-06T04:20:23;101545.53;;;1.13;98.46
58821;BME280;70670;52.476;13.334;2024-03-06T04:22:49;101546.41;;;1.14;98.75
58821;BME280;70670;52.476;13.334;2024-03-06T04:25:16;101539.38;;;1.10;98.55
58821;BME280;70670;52.476;13.334;2024-03-06T04:27:43;101542.03;;;1.07;99.03
58821;BME280;70670;52.476;13.334;2024-03-06T04:30:09;101479.78;;;0.69;98.94
58821;BME280;70670;52.476;13.334;2024-03-06T04:32:35;101548.19;;;1.12;98.53
58821;BME280;70670;52.476;13.334;2024-03-06T04:35:00;101528.00;;;1.02;98.75
58821;BME280;70670;52.476;13.334;2024-03-06T04:37:26;101538.50;;;1.11;98.13
58821;BME280;70670;52.476;13.334;2024-03-06T04:39:54;101525.34;;;1.05;98.34
58821;BME280;70670;52.476;13.334;2024-03-06T04:42:20;101544.66;;;1.14;97.78
58821;BME280;70670;52.476;13.334;2024-03-06T04:44:46;101557.81;;;1.25;97.50
58821;BME280;70670;52.476;13.334;2024-03-06T04:47:11;101547.25;;;1.22;97.19
58821;BME280;70670;52.476;13.334;2024-03-06T04:49:37;101543.75;;;1.21;97.31
58821;BME280;70670;52.476;13.334;2024-03-06T04:52:03;101549.91;;;1.22;96.78
58821;BME280;70670;52.476;13.334;2024-03-06T04:54:29;101535.00;;;1.16;96.34
58821;BME280;70670;52.476;13.334;2024-03-06T04:56:55;101564.78;;;1.34;95.96
58821;BME280;70670;52.476;13.334;2024-03-06T04:59:21;101558.66;;;1.33;96.19
58821;BME280;70670;52.476;13.334;2024-03-06T05:01:46;101573.59;;;1.36;96.09
58821;BME280;70670;52.476;13.334;2024-03-06T05:04:12;101496.38;;;0.97;96.23
58821;BME280;70670;52.476;13.334;2024-03-06T05:06:38;101565.66;;;1.37;95.72
58821;BME280;70670;52.476;13.334;2024-03-06T05:09:03;101492.91;;;0.87;95.93
58821;BME280;70670;52.476;13.334;2024-03-06T05:11:30;101575.34;;;1.34;96.01
58821;BME280;70670;52.476;13.334;2024-03-06T05:13:59;101575.34;;;1.35;96.63
58821;BME280;70670;52.476;13.334;2024-03-06T05:16:24;101487.63;;;0.86;96.52
58821;BME280;70670;52.476;13.334;2024-03-06T05:18:52;101556.03;;;1.26;96.50
58821;BME280;70670;52.476;13.334;2024-03-06T05:21:18;101492.03;;;0.85;96.23
58821;BME280;70670;52.476;13.334;2024-03-06T05:23:43;101586.78;;;1.36;96.19
58821;BME280;70670;52.476;13.334;2024-03-06T05:26:09;101553.44;;;1.16;96.47
58821;BME280;70670;52.476;13.334;2024-03-06T05:28:34;101586.81;;;1.28;96.81
58821;BME280;70670;52.476;13.334;2024-03-06T05:31:01;101599.06;;;1.38;96.62
58821;BME280;70670;52.476;13.334;2024-03-06T05:33:26;101577.13;;;1.26;97.05
58821;BME280;70670;52.476;13.334;2024-03-06T05:35:54;101530.63;;;0.98;97.00
58821;BME280;70670;52.476;13.334;2024-03-06T05:38:20;101609.59;;;1.41;96.25
58821;BME280;70670;52.476;13.334;2024-03-06T05:40:47;101581.53;;;1.31;96.22
58821;BME280;70670;52.476;13.334;2024-03-06T05:43:13;101611.34;;;1.42;96.20
58821;BME280;70670;52.476;13.334;2024-03-06T05:45:38;101614.91;;;1.43;95.71
58821;BME280;70670;52.476;13.334;2024-03-06T05:48:04;101618.41;;;1.40;95.20
58821;BME280;70670;52.476;13.334;2024-03-06T05:50:30;101592.94;;;1.32;95.56
58821;BME280;70670;52.476;13.334;2024-03-06T05:52:57;101590.34;;;1.24;95.81
58821;BME280;70670;52.476;13.334;2024-03-06T05:55:23;101564.00;;;1.03;96.07
58821;BME280;70670;52.476;13.334;2024-03-06T05:57:48;101635.13;;;1.39;97.20
58821;BME280;70670;52.476;13.334;2024-03-06T06:00:16;101632.50;;;1.35;97.50
58821;BME280;70670;52.476;13.334;2024-03-06T06:02:43;101642.16;;;1.34;97.78
58821;BME280;70670;52.476;13.334;2024-03-06T06:05:10;101626.34;;;1.22;97.94
58821;BME280;70670;52.476;13.334;2024-03-06T06:07:36;101642.16;;;1.30;98.27
58821;BME280;70670;52.476;13.334;2024-03-06T06:10:04;101646.56;;;1.29;98.62
58821;BME280;70670;52.476;13.334;2024-03-06T06:12:33;101649.19;;;1.26;99.07
58821;BME280;70670;52.476;13.334;2024-03-06T06:14:59;101653.63;;;1.24;98.98
58821;BME280;70670;52.476;13.334;2024-03-06T06:17:25;101581.63;;;0.82;98.76
58821;BME280;70670;52.476;13.334;2024-03-06T06:19:51;101654.50;;;1.28;98.81
58821;BME280;70670;52.476;13.334;2024-03-06T06:22:16;101661.50;;;1.29;99.02
58821;BME280;70670;52.476;13.334;2024-03-06T06:24:42;101640.44;;;1.19;99.30
58821;BME280;70670;52.476;13.334;2024-03-06T06:27:08;101667.66;;;1.32;99.52
58821;BME280;70670;52.476;13.334;2024-03-06T06:29:34;101612.34;;;1.02;99.27
58821;BME280;70670;52.476;13.334;2024-03-06T06:31:59;101650.09;;;1.25;99.25
58821;BME280;70670;52.476;13.334;2024-03-06T06:34:25;101629.03;;;1.10;99.15
58821;BME280;70670;52.476;13.334;2024-03-06T06:36:53;101651.84;;;1.26;100.00
58821;BME280;70670;52.476;13.334;2024-03-06T06:39:19;101628.16;;;1.12;100.00
58821;BME280;70670;52.476;13.334;2024-03-06T06:41:44;101666.75;;;1.41;100.00
58821;BME280;70670;52.476;13.334;2024-03-06T06:44:10;101671.16;;;1.43;100.00
58821;BME280;70670;52.476;13.334;2024-03-06T06:46:36;101675.50;;;1.58;100.00
58821;BME280;70670;52.476;13.334;2024-03-06T06:49:02;101677.25;;;1.67;99.92
58821;BME280;70670;52.476;13.334;2024-03-06T06:51:27;101676.31;;;1.77;99.58
58821;BME280;70670;52.476;13.334;2024-03-06T06:53:53;101686.88;;;1.80;97.99
58821;BME280;70670;52.476;13.334;2024-03-06T06:56:19;101647.34;;;1.62;98.02
58821;BME280;70670;52.476;13.334;2024-03-06T06:58:47;101688.63;;;1.84;97.40
58821;BME280;70670;52.476;13.334;2024-03-06T07:01:13;101682.47;;;1.81;97.29
58821;BME280;70670;52.476;13.334;2024-03-06T07:03:42;101621.91;;;1.45;97.48
58821;BME280;70670;52.476;13.334;2024-03-06T07:06:08;101671.06;;;1.76;97.19
58821;BME280;70670;52.476;13.334;2024-03-06T07:08:33;101693.84;;;1.93;96.50
58821;BME280;70670;52.476;13.334;2024-03-06T07:10:59;101699.13;;;2.00;96.83
58821;BME280;70670;52.476;13.334;2024-03-06T07:13:25;101699.06;;;2.06;96.31
58821;BME280;70670;52.476;13.334;2024-03-06T07:15:51;101697.31;;;2.11;96.23
58821;BME280;70670;52.476;13.334;2024-03-06T07:18:17;101700.81;;;2.10;95.92
58821;BME280;70670;52.476;13.334;2024-03-06T07:20:42;101630.59;;;1.73;95.77
58821;BME280;70670;52.476;13.334;2024-03-06T07:23:08;101713.94;;;2.25;95.38
58821;BME280;70670;52.476;13.334;2024-03-06T07:25:33;101686.75;;;2.14;94.63
58821;BME280;70670;52.476;13.334;2024-03-06T07:27:59;101641.09;;;1.89;94.71
58821;BME280;70670;52.476;13.334;2024-03-06T07:30:25;101679.69;;;2.13;94.29
58821;BME280;70670;52.476;13.334;2024-03-06T07:32:51;101719.19;;;2.42;93.79
58821;BME280;70670;52.476;13.334;2024-03-06T07:35:16;101720.88;;;2.47;93.67
58821;BME280;70670;52.476;13.334;2024-03-06T07:37:43;101711.19;;;2.45;93.20
58821;BME280;70670;52.476;13.334;2024-03-06T07:40:10;101712.94;;;2.54;92.67
58821;BME280;70670;52.476;13.334;2024-03-06T07:42:35;101719.03;;;2.60;92.13
58821;BME280;70670;52.476;13.334;2024-03-06T07:45:01;101667.22;;;2.36;91.81
58821;BME280;70670;52.476;13.334;2024-03-06T07:47:27;101710.16;;;2.69;91.21
58821;BME280;70670;52.476;13.334;2024-03-06T07:49:53;101715.41;;;2.78;90.64
58821;BME280;70670;52.476;13.334;2024-03-06T07:52:19;101714.50;;;2.81;90.35
58821;BME280;70670;52.476;13.334;2024-03-06T07:54:45;101723.25;;;2.90;89.77
58821;BME280;70670;52.476;13.334;2024-03-06T07:57:11;101696.91;;;2.78;89.29
58821;BME280;70670;52.476;13.334;2024-03-06T07:59:36;101724.00;;;3.08;88.81
58821;BME280;70670;52.476;13.334;2024-03-06T08:02:02;101744.09;;;3.27;87.60
58821;BME280;70670;52.476;13.334;2024-03-06T08:04:27;101740.50;;;3.37;86.42
58821;BME280;70670;52.476;13.334;2024-03-06T08:06:53;101741.34;;;3.41;85.80
58821;BME280;70670;52.476;13.334;2024-03-06T08:09:19;101676.31;;;3.15;85.04
58821;BME280;70670;52.476;13.334;2024-03-06T08:11:45;101752.56;;;3.69;84.85
58821;BME280;70670;52.476;13.334;2024-03-06T08:14:10;101755.06;;;3.80;84.32
58821;BME280;70670;52.476;13.334;2024-03-06T08:16:36;101736.53;;;3.81;83.70
58821;BME280;70670;52.476;13.334;2024-03-06T08:19:02;101730.38;;;3.81;83.18
58821;BME280;70670;52.476;13.334;2024-03-06T08:21:29;101757.50;;;4.00;83.28
58821;BME280;70670;52.476;13.334;2024-03-06T08:23:57;101760.06;;;4.09;82.17
58821;BME280;70670;52.476;13.334;2024-03-06T08:26:26;101750.38;;;4.06;81.77
58821;BME280;70670;52.476;13.334;2024-03-06T08:28:51;101693.34;;;3.76;81.31
58821;BME280;70670;52.476;13.334;2024-03-06T08:31:18;101762.59;;;4.18;80.79
58821;BME280;70670;52.476;13.334;2024-03-06T08:33:43;101724.88;;;3.98;80.79
58821;BME280;70670;52.476;13.334;2024-03-06T08:36:09;101767.72;;;4.30;79.86
58821;BME280;70670;52.476;13.334;2024-03-06T08:38:35;101787.03;;;4.41;79.27
58821;BME280;70670;52.476;13.334;2024-03-06T08:41:01;101778.94;;;4.52;79.30
58821;BME280;70670;52.476;13.334;2024-03-06T08:43:26;101765.75;;;4.46;78.66
58821;BME280;70670;52.476;13.334;2024-03-06T08:45:52;101782.28;;;4.66;78.42
58821;BME280;70670;52.476;13.334;2024-03-06T08:48:18;101776.03;;;4.72;78.37
58821;BME280;70670;52.476;13.334;2024-03-06T08:50:43;101782.06;;;4.82;77.11
58821;BME280;70670;52.476;13.334;2024-03-06T08:53:09;101775.84;;;4.84;77.64
58821;BME280;70670;52.476;13.334;2024-03-06T08:55:34;101789.91;;;4.89;77.28
58821;BME280;70670;52.476;13.334;2024-03-06T08:58:00;101792.41;;;4.99;77.31
58821;BME280;70670;52.476;13.334;2024-03-06T09:00:26;101781.81;;;4.99;75.53
58821;BME280;70670;52.476;13.334;2024-03-06T09:02:52;101792.31;;;5.06;75.41
58821;BME280;70670;52.476;13.334;2024-03-06T09:05:18;101797.38;;;5.22;76.13
58821;BME280;70670;52.476;13.334;2024-03-06T09:07:44;101777.13;;;5.16;76.02
58821;BME280;70670;52.476;13.334;2024-03-06T09:10:10;101713.78;;;4.94;75.95
58821;BME280;70670;52.476;13.334;2024-03-06T09:12:36;101727.00;;;4.98;75.87
58821;BME280;70670;52.476;13.334;2024-03-06T09:15:03;101797.06;;;5.41;75.60
58821;BME280;70670;52.476;13.334;2024-03-06T09:17:29;101773.34;;;5.32;75.06
58821;BME280;70670;52.476;13.334;2024-03-06T09:19:54;101773.22;;;5.38;74.20
58821;BME280;70670;52.476;13.334;2024-03-06T09:22:21;101805.56;;;5.62;73.58
58821;BME280;70670;52.476;13.334;2024-03-06T09:24:46;101801.84;;;5.72;73.72
58821;BME280;70670;52.476;13.334;2024-03-06T09:27:14;101802.50;;;5.85;73.25
58821;BME280;70670;52.476;13.334;2024-03-06T09:29:40;101745.38;;;5.62;72.24
58821;BME280;70670;52.476;13.334;2024-03-06T09:32:06;101783.78;;;5.94;72.28
58821;BME280;70670;52.476;13.334;2024-03-06T09:34:31;101803.03;;;6.07;71.14
58821;BME280;70670;52.476;13.334;2024-03-06T09:36:57;101810.22;;;6.00;70.61
58821;BME280;70670;52.476;13.334;2024-03-06T09:39:23;101802.34;;;5.96;70.79
58821;BME280;70670;52.476;13.334;2024-03-06T09:41:51;101807.53;;;6.02;70.92
58821;BME280;70670;52.476;13.334;2024-03-06T09:44:18;101806.59;;;6.04;70.48
58821;BME280;70670;52.476;13.334;2024-03-06T09:46:44;101800.31;;;6.10;70.30
58821;BME280;70670;52.476;13.334;2024-03-06T09:49:11;101812.41;;;6.25;69.65
58821;BME280;70670;52.476;13.334;2024-03-06T09:51:39;101808.94;;;6.21;69.53
58821;BME280;70670;52.476;13.334;2024-03-06T09:54:07;101813.38;;;6.22;68.78
58821;BME280;70670;52.476;13.334;2024-03-06T09:56:33;101815.88;;;6.28;68.74
58821;BME280;70670;52.476;13.334;2024-03-06T09:59:00;101810.75;;;6.19;68.58
58821;BME280;70670;52.476;13.334;2024-03-06T10:01:26;101768.84;;;5.85;68.16
58821;BME280;70670;52.476;13.334;2024-03-06T10:03:53;101802.34;;;5.96;68.53
58821;BME280;70670;52.476;13.334;2024-03-06T10:06:19;101808.69;;;5.87;69.29
58821;BME280;70670;52.476;13.334;2024-03-06T10:08:45;101823.06;;;5.75;69.84
58821;BME280;70670;52.476;13.334;2024-03-06T10:11:12;101807.41;;;5.58;70.19
58821;BME280;70670;52.476;13.334;2024-03-06T10:13:37;101820.69;;;5.57;71.03
58821;BME280;70670;52.476;13.334;2024-03-06T10:16:04;101817.09;;;5.61;72.03
58821;BME280;70670;52.476;13.334;2024-03-06T10:18:35;101810.56;;;5.80;70.93
58821;BME280;70670;52.476;13.334;2024-03-06T10:21:01;101760.13;;;5.77;69.38
58821;BME280;70670;52.476;13.334;2024-03-06T10:23:26;101812.41;;;6.25;68.40
58821;BME280;70670;52.476;13.334;2024-03-06T10:25:54;101753.38;;;6.09;67.57
58821;BME280;70670;52.476;13.334;2024-03-06T10:28:22;101806.56;;;6.51;67.49
58821;BME280;70670;52.476;13.334;2024-03-06T10:30:48;101785.34;;;6.48;68.29
58821;BME280;70670;52.476;13.334;2024-03-06T10:33:16;101803.44;;;6.74;66.54
58821;BME280;70670;52.476;13.334;2024-03-06T10:35:45;101808.25;;;6.95;65.30
58821;BME280;70670;52.476;13.334;2024-03-06T10:38:12;101817.81;;;7.04;64.63
58821;BME280;70670;52.476;13.334;2024-03-06T10:40:39;101789.69;;;6.94;64.79
58821;BME280;70670;52.476;13.334;2024-03-06T10:43:06;101760.59;;;6.84;64.24
58821;BME280;70670;52.476;13.334;2024-03-06T10:45:53;101821.84;;;7.22;64.43
58821;BME280;70670;52.476;13.334;2024-03-06T10:48:23;101820.88;;;7.26;64.59
58821;BME280;70670;52.476;13.334;2024-03-06T10:50:51;101751.13;;;7.10;64.03
58821;BME280;70670;52.476;13.334;2024-03-06T10:53:17;101818.81;;;7.73;61.62
58821;BME280;70670;52.476;13.334;2024-03-06T10:55:44;101814.19;;;7.79;62.02
58821;BME280;70670;52.476;13.334;2024-03-06T10:58:10;101764.09;;;7.59;61.68
58821;BME280;70670;52.476;13.334;2024-03-06T11:00:44;101811.84;;;8.00;61.37
58821;BME280;70670;52.476;13.334;2024-03-06T11:03:11;101800.38;;;7.98;60.58
58821;BME280;70670;52.476;13.334;2024-03-06T11:05:39;101812.63;;;8.05;59.51
58821;BME280;70670;52.476;13.334;2024-03-06T11:08:09;101807.88;;;8.16;59.34
58821;BME280;70670;52.476;13.334;2024-03-06T11:10:37;101807.09;;;8.12;59.89
58821;BME280;70670;52.476;13.334;2024-03-06T11:13:08;101818.53;;;7.83;60.66
58821;BME280;70670;52.476;13.334;2024-03-06T11:15:34;101818.81;;;7.73;62.09
58821;BME280;70670;52.476;13.334;2024-03-06T11:23:30;101818.66;;;7.45;64.27
58821;BME280;70670;52.476;13.334;2024-03-06T11:25:56;101800.38;;;7.28;64.00
58821;BME280;70670;52.476;13.334;2024-03-06T11:28:33;101826.06;;;7.30;64.12
58821;BME280;70670;52.476;13.334;2024-03-06T11:31:04;101745.63;;;6.80;64.43
58821;BME280;70670;52.476;13.334;2024-03-06T11:33:46;101820.13;;;7.21;64.64
58821;BME280;70670;52.476;13.334;2024-03-06T11:36:27;101767.53;;;6.92;65.08
58821;BME280;70670;52.476;13.334;2024-03-06T11:39:04;101810.91;;;7.34;64.11
58821;BME280;70670;52.476;13.334;2024-03-06T11:41:52;101808.56;;;7.56;63.86
58821;BME280;70670;52.476;13.334;2024-03-06T11:44:19;101803.63;;;7.76;62.35
58821;BME280;70670;52.476;13.334;2024-03-06T11:47:02;101795.72;;;8.06;61.99
58821;BME280;70670;52.476;13.334;2024-03-06T11:49:32;101795.28;;;8.21;60.47
58821;BME280;70670;52.476;13.334;2024-03-06T11:52:01;101790.84;;;8.22;60.13
58821;BME280;70670;52.476;13.334;2024-03-06T11:54:29;101806.69;;;8.26;59.86
58821;BME280;70670;52.476;13.334;2024-03-06T11:56:56;101788.00;;;7.95;60.77
58821;BME280;70670;52.476;13.334;2024-03-06T11:59:24;101814.50;;;8.01;61.26
58821;BME280;70670;52.476;13.334;2024-03-06T12:01:53;101771.19;;;7.59;61.53
58821;BME280;70670;52.476;13.334;2024-03-06T12:04:20;101802.09;;;7.66;61.46
58821;BME280;70670;52.476;13.334;2024-03-06T12:06:46;101758.72;;;7.61;60.87
58821;BME280;70670;52.476;13.334;2024-03-06T12:09:12;101797.78;;;7.96;59.71
58821;BME280;70670;52.476;13.334;2024-03-06T12:11:38;101814.88;;;8.20;58.30
58821;BME280;70670;52.476;13.334;2024-03-06T12:14:04;101789.31;;;8.13;57.58
58821;BME280;70670;52.476;13.334;2024-03-06T12:16:30;101783.78;;;8.19;57.44
58821;BME280;70670;52.476;13.334;2024-03-06T12:18:56;101796.25;;;8.19;57.63
58821;BME280;70670;52.476;13.334;2024-03-06T12:21:30;101761.72;;;7.81;58.01
58821;BME280;70670;52.476;13.334;2024-03-06T12:24:07;101799.53;;;7.96;58.67
58821;BME280;70670;52.476;13.334;2024-03-06T12:26:33;101803.91;;;7.64;58.72
58821;BME280;70670;52.476;13.334;2024-03-06T12:29:10;101809.34;;;7.61;60.40
58821;BME280;70670;52.476;13.334;2024-03-06T12:31:37;101800.25;;;7.70;59.10
58821;BME280;70670;52.476;13.334;2024-03-06T12:34:04;101748.41;;;7.47;58.83
58821;BME280;70670;52.476;13.334;2024-03-06T12:36:31;101808.38;;;7.98;58.56
58821;BME280;70670;52.476;13.334;2024-03-06T12:38:59;101784.97;;;8.09;58.03
58821;BME280;70670;52.476;13.334;2024-03-06T12:41:25;101799.09;;;8.45;57.53
58821;BME280;70670;52.476;13.334;2024-03-06T12:43:52;101783.94;;;8.46;56.29
58821;BME280;70670;52.476;13.334;2024-03-06T12:46:18;101787.25;;;8.54;57.06
58821;BME280;70670;52.476;13.334;2024-03-06T12:48:44;101793.25;;;8.62;55.65
58821;BME280;70670;52.476;13.334;2024-03-06T12:51:10;101784.66;;;8.52;55.47
58821;BME280;70670;52.476;13.334;2024-03-06T12:53:36;101769.91;;;8.69;55.53